Time;durP1;ratioP1;P1;durP2;ratioP2;P2;SDS_P1;SDS_P2;PMS_P1;PMS_P2;Temp;Humidity;BMP_temperature;BMP_pressure;BME280_temperature;BME280_humidity;BME280_pressure;Samples;Min_cycle;Max_cycle;Signal;HPM_P1;HPM_P2
2021/10/27 00:00:09;;;;;;;124.10;65.57;;;2.40;99.90;;;;;;5033818;28;20518;-75
2021/10/27 00:02:34;;;;;;;124.70;61.50;;;2.40;99.90;;;;;;5033750;28;20044;-75
2021/10/27 00:05:00;;;;;;;118.90;61.60;;;2.40;99.90;;;;;;5035034;28;20025;-75
2021/10/27 00:07:26;;;;;;;124.78;61.78;;;2.40;99.90;;;;;;5034140;28;20113;-75
2021/10/27 00:09:52;;;;;;;126.45;64.32;;;2.40;99.90;;;;;;5034966;28;20037;-75
2021/10/27 00:12:17;;;;;;;139.07;65.68;;;2.40;99.90;;;;;;5033694;28;20041;-75
2021/10/27 00:14:43;;;;;;;127.32;61.25;;;2.40;99.90;;;;;;5034921;28;20022;-75
2021/10/27 00:17:09;;;;;;;138.70;71.00;;;2.40;99.90;;;;;;5034687;28;20028;-75
2021/10/27 00:19:35;;;;;;;142.48;75.65;;;2.50;99.90;;;;;;5034752;28;20116;-75
2021/10/27 00:22:00;;;;;;;144.95;73.95;;;2.50;99.90;;;;;;5033477;28;20068;-75
2021/10/27 00:24:26;;;;;;;144.35;72.47;;;2.40;99.90;;;;;;5034346;28;20024;-75
2021/10/27 00:26:52;;;;;;;163.10;80.80;;;2.50;99.90;;;;;;5033378;28;20076;-75
2021/10/27 00:29:18;;;;;;;164.27;84.65;;;2.50;99.90;;;;;;5034577;28;20025;-75
2021/10/27 00:31:43;;;;;;;162.68;82.80;;;2.50;99.90;;;;;;5034734;28;20096;-75
2021/10/27 00:34:09;;;;;;;166.25;85.05;;;2.60;99.90;;;;;;5033209;28;20136;-75
2021/10/27 00:36:35;;;;;;;187.23;92.70;;;2.60;99.90;;;;;;5034502;28;20436;-76
2021/10/27 00:39:01;;;;;;;176.13;93.05;;;2.70;99.90;;;;;;5032969;28;20030;-75
2021/10/27 00:41:26;;;;;;;164.43;85.43;;;2.70;99.90;;;;;;5033223;28;20108;-75
2021/10/27 00:43:52;;;;;;;169.57;87.82;;;2.80;99.90;;;;;;5034284;28;20021;-75
2021/10/27 00:46:23;;;;;;;181.23;92.38;;;2.80;99.90;;;;;;5033067;28;20021;-75
2021/10/27 00:48:49;;;;;;;184.00;92.82;;;2.90;99.90;;;;;;5032943;28;20028;-75
2021/10/27 00:51:16;;;;;;;166.75;87.97;;;2.90;99.90;;;;;;5032783;28;20030;-75
2021/10/27 00:53:43;;;;;;;162.80;87.00;;;2.90;99.90;;;;;;5034151;28;20597;-75
2021/10/27 00:56:09;;;;;;;131.00;67.53;;;2.90;99.90;;;;;;5034173;28;20055;-76
2021/10/27 00:58:36;;;;;;;120.22;64.55;;;2.90;99.90;;;;;;5033886;28;20026;-75
2021/10/27 01:01:03;;;;;;;154.02;78.95;;;2.90;99.90;;;;;;5033963;28;20036;-75
2021/10/27 01:03:29;;;;;;;144.68;75.13;;;3.00;99.90;;;;;;5034040;28;20018;-75
2021/10/27 01:05:55;;;;;;;139.90;73.78;;;3.00;99.90;;;;;;5033959;28;20045;-75
2021/10/27 01:08:21;;;;;;;151.73;78.10;;;3.00;99.90;;;;;;5032679;28;20053;-75
2021/10/27 01:10:47;;;;;;;143.90;77.88;;;3.10;99.90;;;;;;5033768;28;20115;-75
2021/10/27 01:13:13;;;;;;;136.80;74.32;;;3.10;99.90;;;;;;5032537;28;20031;-75
2021/10/27 01:15:40;;;;;;;154.88;80.15;;;3.00;99.90;;;;;;5032490;28;20055;-75
2021/10/27 01:18:06;;;;;;;165.15;86.53;;;3.00;99.90;;;;;;5032313;28;20037;-75
2021/10/27 01:20:33;;;;;;;155.48;77.80;;;3.00;99.90;;;;;;5032345;28;20017;-75
2021/10/27 01:22:59;;;;;;;149.38;80.07;;;3.00;99.90;;;;;;5033589;28;20028;-75
2021/10/27 01:25:25;;;;;;;144.93;76.70;;;3.00;99.90;;;;;;5033616;28;20029;-75
2021/10/27 01:27:52;;;;;;;138.85;76.65;;;3.00;99.90;;;;;;5033564;28;20025;-75
2021/10/27 01:30:22;;;;;;;147.73;77.55;;;3.10;99.90;;;;;;5032204;28;20052;-75
2021/10/27 01:32:49;;;;;;;151.70;76.57;;;3.10;99.90;;;;;;5033487;28;20032;-75
2021/10/27 01:35:16;;;;;;;146.23;80.55;;;3.10;99.90;;;;;;5032883;28;20036;-75
2021/10/27 01:37:43;;;;;;;190.90;98.20;;;3.00;99.90;;;;;;5033196;28;20040;-75
2021/10/27 01:40:12;;;;;;;193.18;99.63;;;3.00;99.90;;;;;;5033168;28;20057;-75
2021/10/27 01:42:38;;;;;;;183.13;94.82;;;3.00;99.90;;;;;;5014347;28;20026;-75
2021/10/27 01:45:05;;;;;;;186.57;97.05;;;3.00;99.90;;;;;;5032996;28;20033;-76
2021/10/27 01:47:32;;;;;;;200.00;103.47;;;3.00;99.90;;;;;;5031983;28;20014;-75
2021/10/27 01:49:58;;;;;;;196.25;101.00;;;2.90;99.90;;;;;;5033132;28;20021;-75
2021/10/27 01:52:24;;;;;;;187.27;93.50;;;2.90;99.90;;;;;;5029329;28;20022;-75
2021/10/27 01:54:50;;;;;;;160.10;83.45;;;2.90;99.90;;;;;;5012114;28;20033;-75
2021/10/27 01:57:15;;;;;;;157.68;80.05;;;2.80;99.90;;;;;;5012113;28;20045;-76
2021/10/27 01:59:41;;;;;;;164.85;87.18;;;2.80;99.90;;;;;;5013207;28;20104;-75
2021/10/27 02:02:07;;;;;;;170.25;85.00;;;2.80;99.90;;;;;;5011900;28;20516;-75
2021/10/27 02:04:32;;;;;;;171.95;86.18;;;2.70;99.90;;;;;;5013236;28;20026;-75
2021/10/27 02:07:00;;;;;;;175.55;89.75;;;2.70;99.90;;;;;;5013272;28;20384;-74
2021/10/27 02:09:26;;;;;;;173.10;90.82;;;2.60;99.90;;;;;;5011950;28;20052;-75
2021/10/27 02:11:51;;;;;;;175.75;91.53;;;2.60;99.90;;;;;;5011896;28;20022;-76
2021/10/27 02:14:17;;;;;;;156.80;82.25;;;2.60;99.90;;;;;;5013096;28;20511;-75
2021/10/27 02:16:43;;;;;;;187.63;93.80;;;2.50;99.90;;;;;;5013114;28;20029;-76
2021/10/27 02:19:09;;;;;;;184.93;92.97;;;2.50;99.90;;;;;;5012942;28;20034;-75
2021/10/27 02:21:35;;;;;;;197.30;100.75;;;2.50;99.90;;;;;;5012100;28;20033;-76
2021/10/27 02:24:01;;;;;;;229.82;111.80;;;2.50;99.90;;;;;;5012931;28;20030;-75
2021/10/27 02:26:27;;;;;;;190.68;88.78;;;2.50;99.90;;;;;;5013171;28;20033;-75
2021/10/27 02:28:53;;;;;;;260.42;119.68;;;2.40;99.90;;;;;;5012910;28;20089;-75
2021/10/27 02:31:19;;;;;;;339.15;144.20;;;2.40;99.90;;;;;;5011543;28;20026;-76
2021/10/27 02:33:45;;;;;;;230.75;100.53;;;2.40;99.90;;;;;;5011620;28;20400;-75
2021/10/27 02:36:11;;;;;;;143.20;75.13;;;2.40;99.90;;;;;;5012901;28;20030;-74
2021/10/27 02:38:37;;;;;;;122.38;63.45;;;2.30;99.90;;;;;;5012904;28;20071;-74
2021/10/27 02:41:04;;;;;;;104.75;55.78;;;2.30;99.90;;;;;;5012853;28;20049;-74
2021/10/27 02:43:30;;;;;;;101.80;55.28;;;2.30;99.90;;;;;;5012878;28;20053;-74
2021/10/27 02:45:56;;;;;;;107.35;56.53;;;2.30;99.90;;;;;;5011527;28;20021;-75
2021/10/27 02:48:22;;;;;;;110.97;54.03;;;2.30;99.90;;;;;;5015996;28;20029;-74
2021/10/27 02:50:48;;;;;;;109.80;55.83;;;2.30;99.90;;;;;;5016628;28;20076;-75
2021/10/27 02:53:14;;;;;;;110.60;56.05;;;2.30;99.90;;;;;;5015368;28;20045;-75
2021/10/27 02:55:40;;;;;;;116.85;62.03;;;2.20;99.90;;;;;;5016630;28;20030;-75
2021/10/27 02:58:06;;;;;;;110.07;57.28;;;2.20;99.90;;;;;;5016450;28;20033;-75
2021/10/27 03:00:31;;;;;;;104.43;54.63;;;2.20;99.90;;;;;;5015129;28;20479;-75
2021/10/27 03:02:57;;;;;;;104.03;52.67;;;2.10;99.90;;;;;;5015450;28;20365;-74
2021/10/27 03:05:23;;;;;;;131.40;65.28;;;2.10;99.90;;;;;;5024997;28;20018;-74
2021/10/27 03:07:49;;;;;;;137.52;67.70;;;2.10;99.90;;;;;;5017347;28;20503;-74
2021/10/27 03:10:16;;;;;;;145.43;70.93;;;2.00;99.90;;;;;;5036091;28;20026;-74
2021/10/27 03:12:42;;;;;;;120.80;62.00;;;2.00;99.90;;;;;;5036145;28;20034;-75
2021/10/27 03:15:08;;;;;;;116.53;57.05;;;2.00;99.90;;;;;;5035904;28;20033;-75
2021/10/27 03:17:34;;;;;;;112.22;58.67;;;2.00;99.90;;;;;;5036055;28;20471;-75
2021/10/27 03:20:00;;;;;;;112.35;57.53;;;2.10;99.90;;;;;;5034492;28;20087;-75
2021/10/27 03:22:26;;;;;;;107.75;55.47;;;2.10;99.90;;;;;;5034686;28;20025;-76
2021/10/27 03:24:51;;;;;;;109.75;58.28;;;2.10;99.90;;;;;;5035825;28;20056;-75
2021/10/27 03:27:17;;;;;;;126.88;66.15;;;2.10;99.90;;;;;;5035861;28;20088;-75
2021/10/27 03:29:43;;;;;;;128.13;66.93;;;2.10;99.90;;;;;;5035724;28;20044;-75
2021/10/27 03:32:09;;;;;;;135.27;71.72;;;2.10;99.90;;;;;;5035803;28;20028;-76
2021/10/27 03:34:35;;;;;;;131.40;69.63;;;2.10;99.90;;;;;;5035635;28;20029;-75
2021/10/27 03:37:02;;;;;;;140.07;71.15;;;2.10;99.90;;;;;;5034426;28;20104;-76
2021/10/27 03:39:27;;;;;;;134.63;68.28;;;2.10;99.90;;;;;;5014521;28;20045;-75
2021/10/27 03:41:53;;;;;;;129.85;65.03;;;2.10;99.90;;;;;;5014492;28;20411;-75
2021/10/27 03:44:19;;;;;;;151.75;74.03;;;2.10;99.90;;;;;;5015705;28;20068;-75
2021/10/27 03:46:45;;;;;;;156.38;78.85;;;2.20;99.90;;;;;;5015626;28;20029;-74
2021/10/27 03:49:11;;;;;;;168.90;83.50;;;2.20;99.90;;;;;;5014351;28;20539;-75
2021/10/27 03:51:37;;;;;;;137.85;67.70;;;2.20;99.90;;;;;;5015652;28;20476;-75
2021/10/27 03:54:02;;;;;;;125.63;63.97;;;2.20;99.90;;;;;;5015542;28;20030;-74
2021/10/27 03:56:28;;;;;;;137.93;68.70;;;2.10;99.90;;;;;;5015590;28;20056;-76
2021/10/27 03:58:54;;;;;;;146.90;73.85;;;2.10;99.90;;;;;;5014495;28;20034;-75
2021/10/27 04:01:20;;;;;;;144.27;75.38;;;2.10;99.90;;;;;;5014136;28;20108;-75
2021/10/27 04:03:46;;;;;;;160.52;76.38;;;2.10;99.90;;;;;;5015331;28;20484;-75
2021/10/27 04:06:12;;;;;;;163.15;81.63;;;2.00;99.90;;;;;;5014044;28;20072;-75
2021/10/27 04:08:37;;;;;;;143.45;78.80;;;2.00;99.90;;;;;;5015302;28;20029;-74
2021/10/27 04:11:03;;;;;;;146.43;71.10;;;1.90;99.90;;;;;;5015238;28;20083;-76
2021/10/27 04:13:29;;;;;;;121.05;60.90;;;1.90;99.90;;;;;;5015123;28;20026;-74
2021/10/27 04:15:54;;;;;;;133.88;68.63;;;1.90;99.90;;;;;;5013911;28;20018;-74
2021/10/27 04:18:20;;;;;;;119.60;61.17;;;1.80;99.90;;;;;;5013776;28;20038;-74
2021/10/27 04:20:46;;;;;;;105.35;54.33;;;1.80;99.90;;;;;;5015000;28;20029;-75
2021/10/27 04:23:12;;;;;;;123.63;61.85;;;1.70;99.90;;;;;;5013748;28;20026;-75
2021/10/27 04:25:38;;;;;;;92.45;49.83;;;1.80;99.90;;;;;;5014917;28;20495;-75
2021/10/27 04:28:04;;;;;;;93.45;50.67;;;1.70;99.90;;;;;;5014926;28;20040;-75
2021/10/27 04:30:31;;;;;;;99.03;50.78;;;1.70;99.90;;;;;;5013601;28;20108;-75
2021/10/27 04:32:56;;;;;;;96.00;51.03;;;1.60;99.90;;;;;;5014828;28;20076;-75
2021/10/27 04:35:22;;;;;;;88.35;48.80;;;1.60;99.90;;;;;;5014789;28;20026;-75
2021/10/27 04:37:49;;;;;;;103.00;55.45;;;1.60;99.90;;;;;;5013386;28;20045;-75
2021/10/27 04:40:18;;;;;;;111.93;56.70;;;1.70;99.90;;;;;;5014620;28;20057;-75
2021/10/27 04:42:45;;;;;;;121.43;63.80;;;1.70;99.90;;;;;;5013410;28;20022;-75
2021/10/27 04:45:11;;;;;;;139.65;69.53;;;1.70;99.90;;;;;;5013335;28;20022;-75
2021/10/27 04:47:37;;;;;;;136.45;65.50;;;1.70;99.90;;;;;;5014633;28;20361;-75
2021/10/27 04:50:05;;;;;;;130.57;65.18;;;1.70;99.90;;;;;;5014404;28;20053;-74
2021/10/27 04:52:31;;;;;;;117.47;62.00;;;1.70;99.90;;;;;;5014443;28;20472;-75
2021/10/27 04:54:57;;;;;;;135.30;65.25;;;1.70;99.90;;;;;;5014328;28;20033;-75
2021/10/27 04:57:22;;;;;;;141.63;73.47;;;1.80;99.90;;;;;;5014407;28;20376;-76
2021/10/27 04:59:48;;;;;;;129.18;64.75;;;1.80;99.90;;;;;;5012906;28;20033;-75
2021/10/27 05:02:16;;;;;;;137.15;64.82;;;1.90;99.90;;;;;;5014541;28;20502;-75
2021/10/27 05:04:43;;;;;;;130.88;61.42;;;1.90;99.90;;;;;;5012958;28;20518;-75
2021/10/27 05:07:11;;;;;;;130.40;68.40;;;2.00;99.90;;;;;;5013156;28;20116;-75
2021/10/27 05:09:36;;;;;;;118.15;64.00;;;2.00;99.90;;;;;;5012806;28;20022;-75
2021/10/27 05:12:04;;;;;;;115.35;63.50;;;2.10;99.90;;;;;;5016734;28;20076;-75
2021/10/27 05:14:31;;;;;;;129.00;68.10;;;2.10;99.90;;;;;;5013954;28;20037;-75
2021/10/27 05:16:57;;;;;;;120.80;63.70;;;2.20;99.90;;;;;;5003361;28;20022;-75
2021/10/27 05:19:23;;;;;;;121.88;66.43;;;2.20;99.90;;;;;;5021361;28;20033;-77
2021/10/27 05:21:49;;;;;;;109.30;58.97;;;2.30;99.90;;;;;;5012767;28;20033;-76
2021/10/27 05:24:15;;;;;;;112.55;60.08;;;2.30;99.90;;;;;;5016125;28;20450;-75
2021/10/27 05:26:40;;;;;;;124.82;64.90;;;2.40;99.90;;;;;;5013301;28;20097;-75
2021/10/27 05:29:06;;;;;;;127.30;68.25;;;2.40;99.90;;;;;;5013567;28;20058;-76
2021/10/27 05:31:32;;;;;;;123.05;66.28;;;2.40;99.90;;;;;;5020538;28;20062;-76
2021/10/27 05:33:58;;;;;;;131.77;67.45;;;2.40;99.90;;;;;;5021872;28;20129;-75
2021/10/27 05:36:24;;;;;;;130.85;69.97;;;2.50;99.90;;;;;;5019182;28;20033;-75
2021/10/27 05:38:50;;;;;;;136.07;70.63;;;2.50;99.90;;;;;;5015533;28;20033;-76
2021/10/27 05:41:16;;;;;;;155.20;84.03;;;2.50;99.90;;;;;;5020832;28;20091;-76
2021/10/27 05:43:43;;;;;;;162.85;88.28;;;2.50;99.90;;;;;;5027255;28;20486;-76
2021/10/27 05:46:09;;;;;;;199.20;102.03;;;2.50;99.90;;;;;;5032254;28;20029;-76
2021/10/27 05:48:39;;;;;;;195.70;103.60;;;2.50;99.90;;;;;;5031400;28;20514;-76
2021/10/27 05:56:19;;;;;;;175.10;92.65;;;2.70;99.90;;;;;;5023749;28;20117;-77
2021/10/27 05:58:45;;;;;;;173.07;89.10;;;2.70;99.90;;;;;;5023527;28;20083;-76
2021/10/27 06:01:11;;;;;;;184.55;94.40;;;2.70;99.90;;;;;;5022594;28;20037;-77
2021/10/27 06:03:37;;;;;;;186.50;98.72;;;2.70;99.90;;;;;;5018274;28;20026;-77
2021/10/27 06:06:03;;;;;;;164.48;91.97;;;2.80;99.90;;;;;;5020718;28;20111;-77
2021/10/27 06:08:31;;;;;;;165.93;87.60;;;2.90;99.90;;;;;;5021781;28;20492;-77
2021/10/27 06:11:08;;;;;;;162.07;86.47;;;2.90;99.90;;;;;;5021596;28;20029;-77
2021/10/27 06:13:36;;;;;;;175.68;88.70;;;2.90;99.90;;;;;;5023602;28;20454;-77
2021/10/27 06:16:02;;;;;;;180.20;93.07;;;3.00;99.90;;;;;;5023417;28;20009;-77
2021/10/27 06:18:28;;;;;;;327.63;142.32;;;3.00;99.90;;;;;;5021908;28;20026;-77
2021/10/27 06:20:54;;;;;;;284.95;126.55;;;3.10;99.90;;;;;;5022138;28;20399;-77
2021/10/27 06:23:22;;;;;;;284.27;131.82;;;3.20;99.90;;;;;;5022830;28;20092;-78
2021/10/27 06:25:49;;;;;;;260.90;114.47;;;3.30;99.90;;;;;;5022881;28;20009;-77
2021/10/27 06:28:27;;;;;;;224.75;111.32;;;3.30;99.90;;;;;;5022076;28;20063;-77
2021/10/27 06:36:14;;;;;;;215.15;105.05;;;3.70;99.90;;;;;;5012711;28;20381;-74
2021/10/27 06:46:41;;;;;;;215.07;105.90;;;4.20;99.90;;;;;;5013215;28;20033;-75
2021/10/27 06:49:07;;;;;;;188.07;100.25;;;4.30;99.90;;;;;;5015284;28;20048;-75
2021/10/27 06:51:34;;;;;;;169.50;89.95;;;4.40;99.90;;;;;;5020226;28;20475;-77
2021/10/27 06:54:00;;;;;;;187.88;94.10;;;4.50;99.90;;;;;;5023810;28;20026;-76
2021/10/27 06:56:25;;;;;;;184.15;98.90;;;4.60;99.90;;;;;;5020869;28;20392;-77
2021/10/27 07:01:21;;;;;;;195.45;102.53;;;4.90;99.90;;;;;;5032591;28;20041;-75
2021/10/27 07:04:04;;;;;;;193.88;100.40;;;5.00;99.90;;;;;;5031091;28;20026;-76
2021/10/27 07:17:25;;;;;;;128.05;69.72;;;5.80;99.90;;;;;;5012975;28;20084;-76
2021/10/27 07:19:51;;;;;;;91.82;52.72;;;6.00;99.90;;;;;;5011939;28;20042;-74
2021/10/27 07:22:17;;;;;;;94.07;52.13;;;6.10;99.90;;;;;;5012608;28;20481;-76
2021/10/27 07:24:44;;;;;;;87.88;50.90;;;6.30;99.90;;;;;;5027624;28;20014;-76
2021/10/27 07:27:11;;;;;;;94.85;52.50;;;6.40;99.90;;;;;;5012266;28;20030;-79
2021/10/27 07:29:38;;;;;;;77.63;45.90;;;6.60;99.90;;;;;;5027861;28;20050;-78
2021/10/27 07:32:06;;;;;;;73.10;43.10;;;6.70;99.90;;;;;;5011182;28;20050;-78
2021/10/27 07:34:36;;;;;;;74.55;43.85;;;6.80;99.90;;;;;;5012764;28;20076;-78
2021/10/27 07:40:00;;;;;;;68.80;41.33;;;7.10;99.90;;;;;;5015784;28;20057;-78
2021/10/27 07:42:26;;;;;;;67.97;41.55;;;7.20;99.90;;;;;;5030955;28;20054;-78
2021/10/27 07:44:52;;;;;;;65.47;39.42;;;7.30;99.90;;;;;;5015801;28;20112;-78
2021/10/27 07:47:18;;;;;;;52.58;34.20;;;7.40;99.90;;;;;;5030983;28;20026;-78
2021/10/27 07:49:44;;;;;;;62.05;34.58;;;7.50;99.90;;;;;;5015570;28;20022;-78
2021/10/27 07:52:10;;;;;;;58.92;32.67;;;7.50;99.90;;;;;;5030861;28;20060;-78
2021/10/27 07:54:36;;;;;;;57.15;31.70;;;7.60;99.90;;;;;;5023561;28;20027;-78
2021/10/27 07:57:02;;;;;;;54.28;30.63;;;7.70;99.90;;;;;;5014198;28;20026;-79
2021/10/27 07:59:30;;;;;;;62.83;36.40;;;7.80;99.90;;;;;;5014151;28;20030;-78
2021/10/27 08:01:56;;;;;;;53.17;33.33;;;7.90;99.90;;;;;;5013897;28;20034;-78
2021/10/27 08:04:22;;;;;;;57.35;30.60;;;8.00;99.90;;;;;;5015463;28;20028;-78
2021/10/27 08:06:48;;;;;;;54.22;31.13;;;8.10;99.90;;;;;;5014067;28;20030;-79
2021/10/27 08:09:14;;;;;;;47.25;29.27;;;8.10;99.90;;;;;;5013963;28;20065;-78
2021/10/27 08:11:40;;;;;;;44.05;27.73;;;8.20;99.90;;;;;;5013971;28;20021;-78
2021/10/27 08:14:07;;;;;;;45.75;28.50;;;8.30;99.90;;;;;;5015092;28;20033;-79
2021/10/27 08:16:33;;;;;;;45.05;28.90;;;8.40;99.90;;;;;;5017479;28;20018;-78
2021/10/27 08:18:59;;;;;;;50.72;29.88;;;8.40;99.90;;;;;;5024138;28;20120;-78
2021/10/27 08:21:25;;;;;;;48.75;27.10;;;8.50;99.90;;;;;;5024295;28;20057;-78
2021/10/27 08:23:52;;;;;;;43.55;26.63;;;8.60;99.90;;;;;;5020962;28;20057;-78
2021/10/27 08:26:22;;;;;;;55.67;26.52;;;8.70;99.90;;;;;;5015021;28;20029;-78
2021/10/27 08:28:59;;;;;;;42.78;26.80;;;8.80;99.90;;;;;;5014853;28;20033;-79
2021/10/27 08:31:36;;;;;;;43.78;24.67;;;9.00;99.90;;;;;;5014913;28;20109;-79
2021/10/27 08:34:34;;;;;;;37.83;24.67;;;9.10;99.90;;;;;;5014814;28;20050;-78
2021/10/27 08:36:48;;;;;;;38.67;23.38;;;9.20;99.90;;;;;;5014664;28;20034;-78
2021/10/27 08:39:16;;;;;;;37.20;21.83;;;9.40;99.90;;;;;;5026197;28;20093;-77
2021/10/27 08:41:41;;;;;;;31.48;21.42;;;9.40;99.90;;;;;;5033209;28;20033;-77
2021/10/27 08:44:07;;;;;;;38.20;22.85;;;9.50;99.90;;;;;;5030620;28;20598;-77
2021/10/27 08:46:34;;;;;;;33.78;21.05;;;9.60;99.90;;;;;;5032259;28;20033;-77
2021/10/27 08:49:03;;;;;;;32.70;21.00;;;9.70;99.90;;;;;;5024660;28;20494;-77
2021/10/27 08:51:29;;;;;;;41.35;22.67;;;9.90;99.90;;;;;;5023121;28;20020;-78
2021/10/27 08:53:56;;;;;;;33.55;19.75;;;10.00;99.90;;;;;;5014489;28;20030;-77
2021/10/27 08:56:24;;;;;;;32.30;19.77;;;10.10;99.90;;;;;;5014509;28;20022;-77
2021/10/27 08:58:55;;;;;;;38.22;20.35;;;10.20;99.90;;;;;;5012932;28;20034;-78
2021/10/27 09:04:43;;;;;;;33.45;18.75;;;10.50;99.90;;;;;;5012184;28;20029;-77
2021/10/27 09:07:22;;;;;;;32.70;19.80;;;10.60;99.90;;;;;;5012188;28;20025;-77
2021/10/27 09:10:20;;;;;;;29.42;18.38;;;10.60;99.90;;;;;;5013364;28;20061;-78
2021/10/27 09:35:41;;;;;;;23.98;14.20;;;11.60;92.80;;;;;;5022777;28;20090;-81
2021/10/27 09:38:28;;;;;;;20.40;15.15;;;11.70;92.00;;;;;;5022422;28;20022;-81
2021/10/27 09:43:49;;;;;;;20.27;13.18;;;11.90;90.10;;;;;;5021155;28;20029;-80
2021/10/27 10:05:20;;;;;;;16.02;8.75;;;12.20;84.50;;;;;;5026308;28;20037;-80
2021/10/27 10:07:47;;;;;;;13.32;9.88;;;12.20;82.60;;;;;;5048711;28;20494;-81
2021/10/27 10:10:14;;;;;;;15.10;9.35;;;12.20;83.90;;;;;;5040606;28;20041;-80
2021/10/27 10:12:50;;;;;;;14.60;9.40;;;12.20;82.90;;;;;;5029714;28;20527;-80
2021/10/27 10:15:21;;;;;;;14.68;9.40;;;12.20;83.30;;;;;;5027841;28;20534;-80
2021/10/27 10:17:50;;;;;;;14.77;9.73;;;12.30;85.40;;;;;;5027665;28;20014;-80
2021/10/27 10:20:16;;;;;;;16.67;8.93;;;12.30;84.00;;;;;;5027585;28;20190;-80
2021/10/27 10:22:43;;;;;;;16.13;10.35;;;12.30;82.50;;;;;;5027567;28;20029;-80
2021/10/27 10:25:17;;;;;;;14.35;9.90;;;12.30;84.70;;;;;;5027505;28;20132;-80
2021/10/27 10:27:48;;;;;;;16.75;9.90;;;12.40;83.10;;;;;;5028525;28;20030;-80
2021/10/27 10:30:32;;;;;;;15.18;9.40;;;12.50;84.60;;;;;;5028998;28;20052;-80
2021/10/27 10:33:06;;;;;;;17.05;10.63;;;12.50;83.10;;;;;;5026060;28;20029;-80
2021/10/27 10:38:50;;;;;;;18.20;9.95;;;12.70;83.40;;;;;;5021229;28;20494;-81
2021/10/27 11:25:45;;;;;;;10.55;7.70;;;13.30;78.00;;;;;;5034620;28;20033;-80
2021/10/27 11:41:21;;;;;;;12.15;8.73;;;13.30;75.10;;;;;;5015152;28;20030;-78
2021/10/27 11:47:22;;;;;;;13.73;9.23;;;13.30;76.80;;;;;;5014991;28;20049;-79
2021/10/27 11:49:52;;;;;;;18.20;9.13;;;13.30;78.00;;;;;;5013294;28;20085;-81
2021/10/27 11:52:18;;;;;;;15.63;8.20;;;13.30;78.50;;;;;;5013746;28;20068;-81
2021/10/27 11:54:54;;;;;;;14.88;8.10;;;13.40;76.70;;;;;;5023665;28;20065;-80
2021/10/27 11:57:21;;;;;;;11.07;7.18;;;13.50;75.20;;;;;;5029985;28;20021;-81
2021/10/27 11:59:51;;;;;;;11.38;7.97;;;13.50;75.20;;;;;;5013736;28;20127;-79
2021/10/27 12:02:18;;;;;;;10.73;6.65;;;13.60;74.50;;;;;;5015718;28;20551;-79
2021/10/27 12:04:44;;;;;;;10.63;6.38;;;13.70;72.20;;;;;;5014333;28;20022;-79
2021/10/27 12:07:34;;;;;;;9.50;6.68;;;13.70;72.00;;;;;;5043960;28;20035;-78
2021/10/27 12:10:09;;;;;;;8.85;6.20;;;13.80;71.10;;;;;;5053156;28;20076;-79
2021/10/27 12:15:40;;;;;;;10.27;5.85;;;13.90;69.00;;;;;;5012993;28;20065;-80
2021/10/27 12:18:08;;;;;;;9.48;5.63;;;14.00;69.40;;;;;;5014848;28;20107;-81
2021/10/27 12:20:37;;;;;;;8.02;5.15;;;14.00;66.70;;;;;;5013533;28;20457;-80
2021/10/27 12:23:06;;;;;;;9.20;5.22;;;14.00;65.70;;;;;;5027611;28;20387;-79
2021/10/27 12:25:32;;;;;;;6.63;4.72;;;14.00;66.50;;;;;;5028253;28;20033;-80
2021/10/27 12:28:05;;;;;;;10.23;5.50;;;14.00;65.10;;;;;;5032914;28;20032;-80
2021/10/27 12:30:37;;;;;;;10.80;5.53;;;14.10;66.10;;;;;;5025574;28;20364;-80
2021/10/27 12:33:05;;;;;;;8.18;5.68;;;14.00;64.20;;;;;;5019764;28;20022;-80
2021/10/27 12:35:30;;;;;;;7.82;4.45;;;13.90;64.30;;;;;;5015870;28;20037;-79
2021/10/27 12:38:22;;;;;;;6.93;4.72;;;13.80;64.30;;;;;;5053931;28;20382;-80
2021/10/27 12:40:49;;;;;;;8.35;5.13;;;13.70;66.10;;;;;;5020658;28;20596;-80
2021/10/27 12:43:17;;;;;;;8.15;5.38;;;13.60;66.80;;;;;;5025004;28;20014;-81
2021/10/27 12:45:45;;;;;;;9.25;5.20;;;13.50;67.50;;;;;;5013487;28;20041;-79
2021/10/27 12:48:13;;;;;;;7.57;5.50;;;13.40;67.20;;;;;;5018183;28;20483;-81
2021/10/27 12:50:57;;;;;;;10.20;5.40;;;13.40;67.50;;;;;;5019197;28;20034;-79
2021/10/27 12:53:31;;;;;;;9.82;5.85;;;13.40;67.90;;;;;;5032416;28;20028;-79
2021/10/27 12:56:11;;;;;;;7.35;5.20;;;13.50;69.60;;;;;;5032243;28;20053;-79
2021/10/27 12:58:42;;;;;;;11.07;6.03;;;13.50;68.90;;;;;;5027793;28;20021;-79
2021/10/27 13:06:56;;;;;;;7.78;5.32;;;13.50;68.30;;;;;;5042593;28;20029;-78
2021/10/27 13:12:13;;;;;;;9.65;5.70;;;13.70;68.40;;;;;;5013577;28;20030;-79
2021/10/27 13:33:30;;;;;;;12.65;7.90;;;14.00;65.10;;;;;;5039681;28;20127;-78
2021/10/27 13:35:56;;;;;;;10.60;7.40;;;13.90;65.00;;;;;;5015197;28;20129;-79
2021/10/27 13:38:25;;;;;;;16.30;11.35;;;13.90;65.50;;;;;;5013481;28;20029;-78
2021/10/27 13:40:51;;;;;;;23.38;14.32;;;13.80;65.20;;;;;;5013878;28;20022;-78
2021/10/27 13:43:33;;;;;;;13.73;8.27;;;13.80;65.60;;;;;;5033244;28;20045;-79
2021/10/27 13:46:15;;;;;;;14.73;8.68;;;13.70;66.50;;;;;;5032794;28;20036;-79
2021/10/27 14:10:26;;;;;;;18.20;9.77;;;13.10;71.00;;;;;;5013224;28;20058;-81
2021/10/27 14:13:03;;;;;;;21.88;10.95;;;13.10;71.40;;;;;;5012087;28;20038;-80
2021/10/27 14:40:27;;;;;;;24.08;12.65;;;12.40;77.60;;;;;;5030656;28;20095;-78
2021/10/27 15:21:28;;;;;;;23.33;12.90;;;11.10;89.10;;;;;;5024882;28;20071;-80
2021/10/27 15:42:27;;;;;;;73.40;41.28;;;10.30;96.40;;;;;;5017728;28;20412;-79
2021/10/27 15:50:42;;;;;;;95.38;48.47;;;10.00;99.70;;;;;;5018139;28;20530;-79
2021/10/27 15:53:08;;;;;;;67.25;35.45;;;9.80;99.90;;;;;;5023823;28;20030;-77
2021/10/27 15:55:36;;;;;;;172.35;119.00;;;9.60;99.90;;;;;;5019115;28;20033;-79
2021/10/27 15:58:02;;;;;;;127.47;80.88;;;9.30;99.90;;;;;;5030531;28;20075;-83
2021/10/27 16:00:28;;;;;;;180.38;122.05;;;9.10;99.90;;;;;;5043853;28;20052;-78
2021/10/27 16:02:53;;;;;;;109.03;62.58;;;9.00;99.90;;;;;;5041872;28;20033;-78
2021/10/27 16:05:19;;;;;;;99.97;59.42;;;8.90;99.90;;;;;;5025881;28;20113;-78
2021/10/27 16:07:47;;;;;;;85.07;54.45;;;8.90;99.90;;;;;;5044120;28;20048;-76
2021/10/27 16:10:18;;;;;;;84.15;47.08;;;8.80;99.90;;;;;;5048503;28;20069;-77
2021/10/27 16:12:45;;;;;;;78.50;43.92;;;8.70;99.90;;;;;;5031725;28;20384;-79
2021/10/27 16:15:16;;;;;;;79.90;42.10;;;8.70;99.90;;;;;;5022598;28;20623;-78
2021/10/27 16:17:42;;;;;;;73.57;39.45;;;8.60;99.90;;;;;;5013311;28;20112;-78
2021/10/27 16:20:09;;;;;;;67.65;38.03;;;8.50;99.90;;;;;;5015224;28;20184;-78
2021/10/27 16:22:35;;;;;;;70.05;36.80;;;8.40;99.90;;;;;;5019592;28;20033;-78
2021/10/27 16:25:01;;;;;;;68.38;36.13;;;8.40;99.90;;;;;;5010397;28;20395;-79
2021/10/27 16:27:27;;;;;;;64.47;33.15;;;8.30;99.90;;;;;;5015595;28;20107;-79
2021/10/27 16:29:53;;;;;;;56.25;31.98;;;8.20;99.90;;;;;;5017445;28;20120;-77
2021/10/27 16:32:18;;;;;;;54.67;30.08;;;8.10;99.90;;;;;;5027246;28;20022;-79
2021/10/27 16:34:45;;;;;;;59.10;33.00;;;8.00;99.90;;;;;;5026435;28;20045;-82
2021/10/27 16:37:10;;;;;;;59.70;31.70;;;7.90;99.90;;;;;;5029540;28;20025;-79
2021/10/27 16:39:36;;;;;;;49.50;26.75;;;7.80;99.90;;;;;;5013891;28;20399;-80
2021/10/27 16:42:03;;;;;;;53.70;29.00;;;7.70;99.90;;;;;;5019181;28;20021;-80
2021/10/27 16:44:28;;;;;;;78.18;39.65;;;7.70;99.90;;;;;;5013415;28;20076;-79
2021/10/27 16:46:55;;;;;;;207.73;112.97;;;7.50;99.90;;;;;;5033345;28;20025;-79
2021/10/27 16:49:20;;;;;;;337.33;163.68;;;7.30;99.90;;;;;;5027113;28;20037;-77
2021/10/27 16:51:46;;;;;;;303.35;140.80;;;7.20;99.90;;;;;;5025955;28;20092;-79
2021/10/27 16:54:12;;;;;;;215.05;96.38;;;7.10;99.90;;;;;;5015392;28;20045;-80
2021/10/27 16:56:37;;;;;;;358.20;188.32;;;7.10;99.90;;;;;;5017047;28;20040;-79
2021/10/27 16:59:03;;;;;;;309.95;146.10;;;7.00;99.90;;;;;;5023912;28;20058;-78
2021/10/27 17:01:29;;;;;;;651.08;312.45;;;6.90;99.90;;;;;;5012036;28;20029;-80
2021/10/27 17:03:54;;;;;;;271.17;116.75;;;6.90;99.90;;;;;;5012039;28;20101;-81
2021/10/27 17:06:22;;;;;;;294.67;130.70;;;6.90;99.90;;;;;;5026917;28;20395;-80
2021/10/27 17:08:48;;;;;;;95.18;49.70;;;6.90;99.90;;;;;;5034530;28;20045;-79
2021/10/27 17:11:14;;;;;;;138.02;70.15;;;6.90;99.90;;;;;;5051765;28;20037;-78
2021/10/27 17:13:42;;;;;;;161.98;79.10;;;6.80;99.90;;;;;;5033285;28;20049;-78
2021/10/27 17:16:08;;;;;;;144.00;71.60;;;6.80;99.90;;;;;;5014045;28;20030;-78
2021/10/27 17:18:34;;;;;;;132.65;64.60;;;6.70;99.90;;;;;;5015154;28;20036;-78